Time;durP1;ratioP1;P1;durP2;ratioP2;P2;SDS_P1;SDS_P2;PMS_P1;PMS_P2;Temp;Humidity;BMP_temperature;BMP_pressure;BME280_temperature;BME280_humidity;BME280_pressure;Samples;Min_cycle;Max_cycle;Signal;HPM_P1;HPM_P2
2023/12/30 00:00:31;;;;;;;4.63;1.13;;;;;;;;;;4949763;29;20475;-80
2023/12/30 00:03:02;;;;;;;2.53;1.38;;;;;;;;;;4957106;29;20050;-79
2023/12/30 00:05:33;;;;;;;3.35;1.08;;;;;;;;;;4953396;29;20051;-79
2023/12/30 00:08:04;;;;;;;3.60;0.90;;;;;;;;;;4955914;29;20058;-80
2023/12/30 00:10:33;;;;;;;5.20;1.40;;;;;;;;;;4958103;29;20524;-79
2023/12/30 00:13:03;;;;;;;7.38;1.40;;;;;;;;;;4962756;29;20058;-80
2023/12/30 00:15:34;;;;;;;4.15;1.35;;;;;;;;;;4976550;28;20053;-78
2023/12/30 00:18:04;;;;;;;2.83;1.20;;;;;;;;;;4968917;28;20054;-79
2023/12/30 00:20:35;;;;;;;3.85;1.60;;;;;;;;;;4956866;29;20516;-79
2023/12/30 00:23:05;;;;;;;4.78;1.10;;;;;;;;;;4957134;29;20078;-79
2023/12/30 00:25:35;;;;;;;4.70;1.20;;;;;;;;;;4940272;29;20494;-80
2023/12/30 00:28:05;;;;;;;2.70;1.40;;;;;;;;;;4958027;29;20036;-79
2023/12/30 00:30:36;;;;;;;7.07;1.25;;;;;;;;;;4953411;29;20062;-80
2023/12/30 00:33:08;;;;;;;4.95;1.30;;;;;;;;;;4957277;29;20042;-80
2023/12/30 00:35:39;;;;;;;2.00;1.05;;;;;;;;;;4957114;29;20051;-80
2023/12/30 00:38:09;;;;;;;3.78;1.40;;;;;;;;;;4956662;28;20062;-78
2023/12/30 00:40:40;;;;;;;5.93;1.80;;;;;;;;;;4957029;29;20039;-79
2023/12/30 00:43:10;;;;;;;5.15;1.10;;;;;;;;;;4937462;28;20058;-80
2023/12/30 00:45:41;;;;;;;4.00;1.30;;;;;;;;;;4947214;28;20050;-80
2023/12/30 00:48:15;;;;;;;2.35;1.00;;;;;;;;;;4941876;29;20059;-80
2023/12/30 00:50:48;;;;;;;3.22;1.42;;;;;;;;;;4934385;29;20052;-79
2023/12/30 00:53:19;;;;;;;3.22;1.70;;;;;;;;;;4947698;29;20510;-79
2023/12/30 00:55:49;;;;;;;2.72;1.30;;;;;;;;;;4941299;28;20063;-80
2023/12/30 00:58:19;;;;;;;4.72;1.77;;;;;;;;;;4931952;29;20055;-79
2023/12/30 01:00:50;;;;;;;5.30;1.52;;;;;;;;;;4935874;29;20471;-79
2023/12/30 01:03:21;;;;;;;3.83;1.48;;;;;;;;;;4935693;29;20060;-79
2023/12/30 01:05:52;;;;;;;3.97;1.50;;;;;;;;;;4918512;29;20048;-80
2023/12/30 01:08:22;;;;;;;6.57;1.48;;;;;;;;;;4936089;29;20056;-80
2023/12/30 01:10:53;;;;;;;5.85;1.40;;;;;;;;;;4933981;29;20418;-81
2023/12/30 01:13:24;;;;;;;5.18;1.45;;;;;;;;;;4933429;29;20051;-80
2023/12/30 01:15:55;;;;;;;3.53;1.45;;;;;;;;;;4937404;29;20070;-80
2023/12/30 01:18:25;;;;;;;4.93;1.15;;;;;;;;;;4953422;29;20054;-79
2023/12/30 01:20:56;;;;;;;10.48;1.52;;;;;;;;;;4953821;29;20062;-78
2023/12/30 01:23:27;;;;;;;5.82;1.45;;;;;;;;;;4954617;28;20403;-79
2023/12/30 01:25:57;;;;;;;4.95;1.85;;;;;;;;;;4954696;29;20043;-80
2023/12/30 01:28:27;;;;;;;5.13;1.48;;;;;;;;;;4951675;28;20486;-79
2023/12/30 01:30:58;;;;;;;2.72;1.33;;;;;;;;;;4954036;29;20044;-79
2023/12/30 01:33:29;;;;;;;7.45;1.23;;;;;;;;;;4953196;29;20093;-79
2023/12/30 01:36:01;;;;;;;3.17;1.40;;;;;;;;;;4936320;29;20063;-79
2023/12/30 01:38:31;;;;;;;6.43;1.20;;;;;;;;;;4953995;29;20043;-79
2023/12/30 01:41:01;;;;;;;7.53;1.33;;;;;;;;;;4937997;29;20063;-79
2023/12/30 01:43:32;;;;;;;2.50;1.02;;;;;;;;;;4955483;29;20047;-78
2023/12/30 01:46:09;;;;;;;10.32;1.50;;;;;;;;;;4944003;29;20086;-79
2023/12/30 01:48:39;;;;;;;3.55;1.40;;;;;;;;;;4945383;29;20406;-78
2023/12/30 01:51:10;;;;;;;5.38;1.25;;;;;;;;;;4941812;29;20051;-78
2023/12/30 01:53:56;;;;;;;3.40;1.02;;;;;;;;;;4961739;28;20027;-79
2023/12/30 01:56:27;;;;;;;5.53;1.40;;;;;;;;;;4941623;28;20510;-79
2023/12/30 01:59:00;;;;;;;5.63;1.90;;;;;;;;;;4951198;29;20042;-79
2023/12/30 02:01:30;;;;;;;;;;;;;;;;;;4956086;28;20059;-78
2023/12/30 02:04:01;;;;;;;4.88;1.50;;;;;;;;;;4937435;29;19923;-78
2023/12/30 02:06:32;;;;;;;6.18;1.48;;;;;;;;;;4953667;28;20063;-79
2023/12/30 02:09:02;;;;;;;5.85;1.40;;;;;;;;;;4953245;29;20054;-78
2023/12/30 02:11:33;;;;;;;4.35;1.50;;;;;;;;;;4952936;28;20104;-78
2023/12/30 02:14:03;;;;;;;19.67;1.77;;;;;;;;;;4953061;29;20035;-79
2023/12/30 02:16:33;;;;;;;12.35;2.80;;;;;;;;;;4938001;28;20043;-80
2023/12/30 02:19:04;;;;;;;5.30;1.38;;;;;;;;;;4921015;29;20414;-79
2023/12/30 02:21:35;;;;;;;5.78;1.70;;;;;;;;;;4932971;29;20067;-78
2023/12/30 02:24:05;;;;;;;9.73;1.70;;;;;;;;;;4935942;29;20043;-78
2023/12/30 02:26:37;;;;;;;5.70;2.25;;;;;;;;;;4949318;29;20055;-79
2023/12/30 02:29:08;;;;;;;6.32;1.90;;;;;;;;;;4952706;29;20048;-79
2023/12/30 02:31:49;;;;;;;5.30;2.00;;;;;;;;;;4952426;29;20047;-78
2023/12/30 02:34:20;;;;;;;7.10;1.95;;;;;;;;;;4950192;29;20058;-78
2023/12/30 02:36:51;;;;;;;7.93;1.70;;;;;;;;;;4935996;29;20059;-78
2023/12/30 02:39:21;;;;;;;7.03;2.20;;;;;;;;;;4953194;29;20051;-79
2023/12/30 02:41:52;;;;;;;7.57;2.38;;;;;;;;;;4936775;29;20414;-78
2023/12/30 02:44:22;;;;;;;5.90;2.00;;;;;;;;;;4948609;29;20383;-78
2023/12/30 02:46:53;;;;;;;8.10;2.85;;;;;;;;;;4950644;28;20521;-79
2023/12/30 02:49:23;;;;;;;7.80;1.98;;;;;;;;;;4932655;29;20086;-79
2023/12/30 02:51:54;;;;;;;7.68;2.10;;;;;;;;;;4934450;29;20047;-79
2023/12/30 02:54:24;;;;;;;5.70;2.13;;;;;;;;;;4933636;29;20060;-79
2023/12/30 02:56:55;;;;;;;9.60;2.05;;;;;;;;;;4934171;29;20476;-79
2023/12/30 02:59:26;;;;;;;8.52;1.83;;;;;;;;;;4932368;29;20388;-78
2023/12/30 03:01:56;;;;;;;6.95;2.17;;;;;;;;;;4916144;29;20059;-79
2023/12/30 03:04:27;;;;;;;13.57;2.58;;;;;;;;;;4933420;29;20055;-79
2023/12/30 03:06:57;;;;;;;11.68;3.28;;;;;;;;;;4931985;29;20403;-79
2023/12/30 03:09:27;;;;;;;8.43;2.67;;;;;;;;;;4933296;29;20060;-79
2023/12/30 03:11:58;;;;;;;19.73;2.88;;;;;;;;;;4931168;29;20060;-79
2023/12/30 03:14:30;;;;;;;14.20;2.53;;;;;;;;;;4934253;29;20059;-79
2023/12/30 03:17:00;;;;;;;16.65;2.90;;;;;;;;;;4935534;29;20043;-79
2023/12/30 03:19:30;;;;;;;19.27;2.78;;;;;;;;;;4934044;29;20047;-79
2023/12/30 03:22:04;;;;;;;52.10;3.53;;;;;;;;;;4932913;29;20047;-80
2023/12/30 03:24:34;;;;;;;9.35;2.15;;;;;;;;;;4935607;29;20514;-79
2023/12/30 03:27:05;;;;;;;10.85;2.63;;;;;;;;;;4950614;29;20055;-79
2023/12/30 03:29:35;;;;;;;4.95;2.70;;;;;;;;;;4934900;29;20418;-78
2023/12/30 03:32:05;;;;;;;8.80;2.63;;;;;;;;;;4936034;29;20048;-79
2023/12/30 03:34:35;;;;;;;10.15;2.90;;;;;;;;;;4936561;29;20059;-78
2023/12/30 03:37:05;;;;;;;10.02;3.30;;;;;;;;;;4936875;29;20051;-79
2023/12/30 03:39:36;;;;;;;13.07;5.45;;;;;;;;;;4937219;29;20414;-79
2023/12/30 03:42:06;;;;;;;15.65;6.47;;;;;;;;;;4939882;29;20048;-79
2023/12/30 03:44:36;;;;;;;13.70;5.30;;;;;;;;;;4953708;29;20060;-79
2023/12/30 03:47:06;;;;;;;10.30;5.13;;;;;;;;;;4938671;29;20052;-79
2023/12/30 03:49:36;;;;;;;10.90;4.63;;;;;;;;;;4944943;29;20058;-79
2023/12/30 03:52:06;;;;;;;9.52;4.75;;;;;;;;;;4958310;29;20372;-79
2023/12/30 03:54:36;;;;;;;13.65;3.88;;;;;;;;;;4956698;29;20100;-79
2023/12/30 03:57:08;;;;;;;8.85;3.28;;;;;;;;;;4956988;29;20054;-79
2023/12/30 03:59:37;;;;;;;9.88;4.43;;;;;;;;;;4956794;29;20063;-79
2023/12/30 04:02:08;;;;;;;8.70;4.05;;;;;;;;;;4956344;29;20054;-80
2023/12/30 04:04:43;;;;;;;11.20;4.13;;;;;;;;;;4958754;29;20051;-79
2023/12/30 04:07:14;;;;;;;11.50;3.88;;;;;;;;;;4958265;29;20056;-79
2023/12/30 04:09:44;;;;;;;10.98;3.97;;;;;;;;;;4941854;29;20047;-80
2023/12/30 04:12:14;;;;;;;8.32;3.47;;;;;;;;;;4956999;29;20047;-80
2023/12/30 04:14:44;;;;;;;9.35;3.63;;;;;;;;;;4940824;29;20048;-80
2023/12/30 04:17:14;;;;;;;9.02;3.47;;;;;;;;;;4940746;29;20055;-79
2023/12/30 04:19:44;;;;;;;16.63;4.45;;;;;;;;;;4972363;28;20477;-80
2023/12/30 04:22:15;;;;;;;5.75;2.92;;;;;;;;;;4957687;29;20051;-79
2023/12/30 04:24:46;;;;;;;9.35;3.53;;;;;;;;;;4956653;29;20062;-80
2023/12/30 04:27:16;;;;;;;8.13;3.30;;;;;;;;;;4957629;29;20054;-79
2023/12/30 04:29:47;;;;;;;9.13;4.18;;;;;;;;;;4957628;29;20043;-79
2023/12/30 04:32:20;;;;;;;8.50;2.95;;;;;;;;;;4958060;28;20047;-79
2023/12/30 04:34:51;;;;;;;9.82;3.47;;;;;;;;;;4955776;29;20063;-80
2023/12/30 04:37:23;;;;;;;12.43;4.40;;;;;;;;;;4940219;29;20047;-79
2023/12/30 04:39:53;;;;;;;10.18;4.00;;;;;;;;;;4957914;29;20051;-79
2023/12/30 04:42:23;;;;;;;17.20;5.20;;;;;;;;;;4955501;29;20051;-79
2023/12/30 04:44:53;;;;;;;11.80;4.50;;;;;;;;;;4924574;29;20150;-79
2023/12/30 04:47:23;;;;;;;11.50;4.88;;;;;;;;;;4954781;29;20051;-79
2023/12/30 04:49:55;;;;;;;17.33;5.60;;;;;;;;;;4956814;29;20455;-79
2023/12/30 04:52:25;;;;;;;10.77;5.00;;;;;;;;;;4939699;29;20051;-79
2023/12/30 04:54:55;;;;;;;9.45;4.32;;;;;;;;;;4957203;28;20054;-79
2023/12/30 04:57:25;;;;;;;13.77;4.82;;;;;;;;;;4955451;29;20056;-79
2023/12/30 04:59:55;;;;;;;12.98;5.15;;;;;;;;;;4955030;29;20086;-79
2023/12/30 05:02:26;;;;;;;14.23;4.10;;;;;;;;;;4955453;29;20047;-79
2023/12/30 05:04:56;;;;;;;11.27;4.45;;;;;;;;;;4955586;29;20058;-78
2023/12/30 05:07:26;;;;;;;10.48;4.55;;;;;;;;;;4940358;29;20047;-80
2023/12/30 05:09:57;;;;;;;9.82;3.80;;;;;;;;;;4955013;29;20062;-79
2023/12/30 05:12:27;;;;;;;9.98;3.90;;;;;;;;;;4957096;29;20159;-80
2023/12/30 05:14:57;;;;;;;8.68;3.80;;;;;;;;;;4939805;29;20435;-80
2023/12/30 05:17:32;;;;;;;10.18;3.50;;;;;;;;;;4956789;28;20043;-79
2023/12/30 05:20:04;;;;;;;9.88;3.60;;;;;;;;;;4956916;29;20378;-80
2023/12/30 05:22:39;;;;;;;9.80;3.80;;;;;;;;;;4957341;29;20058;-79
2023/12/30 05:25:10;;;;;;;6.90;3.35;;;;;;;;;;4956691;29;20050;-79
2023/12/30 05:27:41;;;;;;;8.00;2.90;;;;;;;;;;4956584;29;20039;-80
2023/12/30 05:30:11;;;;;;;12.57;3.70;;;;;;;;;;4956921;29;20494;-80
2023/12/30 05:32:41;;;;;;;8.82;3.22;;;;;;;;;;4956471;29;20487;-79
2023/12/30 05:35:11;;;;;;;11.52;3.25;;;;;;;;;;4940826;29;20517;-79
2023/12/30 05:37:43;;;;;;;9.32;3.45;;;;;;;;;;4956986;29;20051;-78
2023/12/30 05:40:13;;;;;;;6.60;3.20;;;;;;;;;;4939511;29;20058;-80
2023/12/30 05:42:46;;;;;;;7.50;3.05;;;;;;;;;;4939443;29;20053;-79
2023/12/30 05:45:16;;;;;;;10.07;2.90;;;;;;;;;;4956942;29;20054;-80
2023/12/30 05:47:46;;;;;;;6.55;2.60;;;;;;;;;;4956850;29;20055;-79
2023/12/30 05:50:16;;;;;;;6.00;2.65;;;;;;;;;;4954505;28;20388;-79
2023/12/30 05:53:05;;;;;;;6.90;2.50;;;;;;;;;;4959556;29;20054;-78
2023/12/30 05:56:09;;;;;;;5.60;2.28;;;;;;;;;;4960726;29;20055;-79
2023/12/30 05:58:39;;;;;;;;;;;;;;;;;;4942889;29;20051;-79
2023/12/30 06:01:09;;;;;;;8.15;2.55;;;;;;;;;;4938318;29;19923;-79
2023/12/30 06:03:39;;;;;;;5.07;2.22;;;;;;;;;;4956117;29;20050;-78
2023/12/30 06:06:09;;;;;;;12.77;2.83;;;;;;;;;;4956788;29;20494;-79
2023/12/30 06:08:41;;;;;;;5.07;2.53;;;;;;;;;;4956232;29;20050;-79
2023/12/30 06:11:15;;;;;;;7.07;2.50;;;;;;;;;;4956174;29;20047;-78
2023/12/30 06:13:46;;;;;;;5.72;2.28;;;;;;;;;;4955678;29;20054;-79
2023/12/30 06:16:16;;;;;;;5.25;2.90;;;;;;;;;;4956174;28;20047;-78
2023/12/30 06:18:46;;;;;;;5.65;2.70;;;;;;;;;;4955974;29;20058;-78
2023/12/30 06:21:17;;;;;;;7.72;2.80;;;;;;;;;;4938016;29;20051;-78
2023/12/30 06:23:48;;;;;;;7.43;2.97;;;;;;;;;;4955411;28;20388;-78
2023/12/30 06:26:18;;;;;;;13.63;2.83;;;;;;;;;;4953394;29;20051;-79
2023/12/30 06:28:49;;;;;;;4.70;2.47;;;;;;;;;;4954346;29;20054;-80
2023/12/30 06:31:19;;;;;;;17.73;2.95;;;;;;;;;;4955694;29;20051;-78
2023/12/30 06:33:49;;;;;;;7.80;2.70;;;;;;;;;;4955602;29;20474;-78
2023/12/30 06:36:23;;;;;;;7.05;3.30;;;;;;;;;;4955993;29;20043;-79
2023/12/30 06:38:53;;;;;;;5.20;2.83;;;;;;;;;;4955675;29;20507;-78
2023/12/30 06:41:23;;;;;;;8.45;2.95;;;;;;;;;;4955259;28;20054;-77
2023/12/30 06:43:53;;;;;;;4.22;2.45;;;;;;;;;;4955523;29;20046;-78
2023/12/30 06:46:25;;;;;;;8.43;3.03;;;;;;;;;;4955515;29;20116;-78
2023/12/30 06:48:55;;;;;;;6.15;2.58;;;;;;;;;;4955049;29;20050;-78
2023/12/30 06:51:25;;;;;;;8.32;2.92;;;;;;;;;;4955591;29;20487;-78
2023/12/30 06:53:55;;;;;;;5.57;3.25;;;;;;;;;;4955394;28;20046;-78
2023/12/30 06:56:25;;;;;;;7.55;3.33;;;;;;;;;;4955570;28;20058;-79
2023/12/30 06:58:56;;;;;;;7.15;3.40;;;;;;;;;;4953096;29;20047;-79
2023/12/30 07:01:27;;;;;;;8.25;3.75;;;;;;;;;;4953835;29;20043;-78
2023/12/30 07:03:57;;;;;;;6.13;3.33;;;;;;;;;;4955105;29;20051;-78
2023/12/30 07:06:27;;;;;;;7.22;4.35;;;;;;;;;;4954009;29;20055;-79
2023/12/30 07:08:58;;;;;;;10.90;4.05;;;;;;;;;;4938829;29;20053;-78
2023/12/30 07:11:28;;;;;;;10.38;4.20;;;;;;;;;;4937299;29;20047;-79
2023/12/30 07:13:59;;;;;;;7.55;4.22;;;;;;;;;;4954974;29;20389;-79
2023/12/30 07:16:29;;;;;;;6.93;4.07;;;;;;;;;;4955036;28;20406;-79
2023/12/30 07:19:00;;;;;;;6.50;3.95;;;;;;;;;;4955894;29;20043;-79
2023/12/30 07:21:32;;;;;;;6.40;3.78;;;;;;;;;;4955471;29;20517;-79
2023/12/30 07:24:02;;;;;;;9.90;4.57;;;;;;;;;;4954897;29;20043;-78
2023/12/30 07:26:32;;;;;;;9.20;4.53;;;;;;;;;;4955150;29;20051;-79
2023/12/30 07:29:03;;;;;;;9.57;3.55;;;;;;;;;;4937755;29;20474;-78
2023/12/30 07:31:34;;;;;;;11.63;4.43;;;;;;;;;;4955172;29;20047;-79
2023/12/30 07:34:04;;;;;;;11.02;4.22;;;;;;;;;;4942030;29;20173;-78
2023/12/30 07:36:34;;;;;;;8.77;4.63;;;;;;;;;;4961965;29;20052;-78
2023/12/30 07:39:04;;;;;;;8.80;4.00;;;;;;;;;;4962588;28;20062;-78
2023/12/30 07:41:34;;;;;;;10.70;4.32;;;;;;;;;;4940186;29;20059;-79
2023/12/30 07:44:07;;;;;;;6.28;3.45;;;;;;;;;;4955428;29;20059;-79
2023/12/30 07:46:40;;;;;;;7.50;4.05;;;;;;;;;;4956714;29;20051;-80
2023/12/30 07:49:14;;;;;;;10.75;4.43;;;;;;;;;;4954485;28;20079;-79
2023/12/30 07:51:45;;;;;;;7.53;4.03;;;;;;;;;;4953087;29;20494;-80
2023/12/30 07:54:15;;;;;;;11.82;3.92;;;;;;;;;;4938132;29;20047;-80
2023/12/30 07:56:46;;;;;;;8.57;3.67;;;;;;;;;;4954987;29;20051;-79
2023/12/30 07:59:17;;;;;;;8.55;3.55;;;;;;;;;;4921374;29;20059;-80
2023/12/30 08:01:47;;;;;;;8.95;3.50;;;;;;;;;;4952267;29;20422;-79
2023/12/30 08:04:17;;;;;;;8.30;3.72;;;;;;;;;;4936754;29;20052;-80
2023/12/30 08:06:47;;;;;;;13.27;3.72;;;;;;;;;;4953723;28;20410;-78
2023/12/30 08:09:17;;;;;;;10.20;4.10;;;;;;;;;;4954958;29;20517;-79
2023/12/30 08:11:48;;;;;;;8.10;4.40;;;;;;;;;;4954914;29;20051;-78
2023/12/30 08:14:30;;;;;;;11.05;3.78;;;;;;;;;;4954980;29;20047;-78
2023/12/30 08:17:02;;;;;;;10.43;3.30;;;;;;;;;;4969628;28;20052;-78
2023/12/30 08:19:32;;;;;;;15.27;3.70;;;;;;;;;;4938200;29;20062;-78
2023/12/30 08:22:05;;;;;;;10.23;3.97;;;;;;;;;;4957707;28;20046;-79
2023/12/30 08:24:39;;;;;;;8.63;3.33;;;;;;;;;;4957719;29;20054;-79
2023/12/30 08:27:13;;;;;;;7.47;3.83;;;;;;;;;;4940423;29;20059;-79
2023/12/30 08:29:43;;;;;;;6.88;3.83;;;;;;;;;;4958132;28;20047;-79
2023/12/30 08:32:13;;;;;;;6.25;3.63;;;;;;;;;;4957701;29;20590;-79
2023/12/30 08:34:44;;;;;;;6.88;3.60;;;;;;;;;;4958233;28;20047;-80
2023/12/30 08:37:14;;;;;;;10.18;3.83;;;;;;;;;;4956261;29;20054;-79
2023/12/30 08:39:45;;;;;;;9.35;3.72;;;;;;;;;;4957269;29;20051;-80
2023/12/30 08:42:16;;;;;;;9.13;3.90;;;;;;;;;;4956104;29;20048;-80
2023/12/30 08:44:47;;;;;;;10.75;3.90;;;;;;;;;;4956971;29;20051;-81
2023/12/30 08:47:17;;;;;;;8.00;3.50;;;;;;;;;;4957416;28;20050;-80
2023/12/30 08:49:47;;;;;;;7.35;4.10;;;;;;;;;;4940327;29;20131;-81
2023/12/30 08:52:17;;;;;;;6.95;3.90;;;;;;;;;;4957983;29;20518;-80
2023/12/30 08:54:47;;;;;;;7.57;4.10;;;;;;;;;;4957701;29;20047;-79
2023/12/30 08:57:17;;;;;;;8.30;3.92;;;;;;;;;;4951056;29;20043;-79
2023/12/30 08:59:48;;;;;;;7.57;4.25;;;;;;;;;;4956595;29;20430;-80
2023/12/30 09:02:19;;;;;;;8.63;3.78;;;;;;;;;;4939247;29;20109;-79
2023/12/30 09:04:49;;;;;;;6.80;3.75;;;;;;;;;;4954369;29;20513;-80
2023/12/30 09:07:19;;;;;;;6.95;3.63;;;;;;;;;;4947920;29;20525;-79
2023/12/30 09:09:51;;;;;;;6.90;3.53;;;;;;;;;;4956835;28;20043;-79
2023/12/30 09:12:23;;;;;;;10.02;3.85;;;;;;;;;;4956853;28;20046;-79
2023/12/30 09:14:54;;;;;;;7.45;3.70;;;;;;;;;;4940040;29;20047;-81
2023/12/30 09:17:25;;;;;;;7.82;3.47;;;;;;;;;;4957185;29;20058;-79
2023/12/30 09:19:56;;;;;;;7.05;3.55;;;;;;;;;;4939516;29;20050;-80
2023/12/30 09:22:27;;;;;;;11.60;4.00;;;;;;;;;;4956740;28;20513;-80
2023/12/30 09:24:57;;;;;;;8.23;4.05;;;;;;;;;;4940241;29;20043;-79
2023/12/30 09:27:29;;;;;;;5.90;3.25;;;;;;;;;;4957006;29;20521;-79
2023/12/30 09:29:59;;;;;;;8.80;4.47;;;;;;;;;;4939344;29;20403;-79
2023/12/30 09:32:30;;;;;;;12.55;3.92;;;;;;;;;;4955870;28;20513;-79
2023/12/30 09:35:02;;;;;;;8.60;3.58;;;;;;;;;;4954681;29;20055;-79
2023/12/30 09:37:34;;;;;;;10.57;3.60;;;;;;;;;;4956791;29;20039;-79
2023/12/30 09:40:08;;;;;;;13.40;3.13;;;;;;;;;;4956506;28;20070;-79
2023/12/30 09:42:38;;;;;;;6.32;3.10;;;;;;;;;;4939771;29;20043;-79
2023/12/30 09:45:09;;;;;;;4.88;3.03;;;;;;;;;;4956487;29;20058;-79
2023/12/30 09:47:41;;;;;;;7.03;2.83;;;;;;;;;;4955444;28;20058;-79
2023/12/30 09:50:11;;;;;;;12.55;3.38;;;;;;;;;;4954550;28;20070;-79
2023/12/30 09:52:41;;;;;;;5.93;2.67;;;;;;;;;;4956559;29;20515;-79
2023/12/30 09:55:11;;;;;;;6.15;2.80;;;;;;;;;;4956008;28;20047;-79
2023/12/30 09:57:42;;;;;;;5.43;2.35;;;;;;;;;;4939628;29;20055;-78
2023/12/30 10:00:17;;;;;;;7.32;2.88;;;;;;;;;;4956617;28;20047;-79
2023/12/30 10:02:48;;;;;;;6.13;2.70;;;;;;;;;;4956733;29;20390;-79
2023/12/30 10:05:19;;;;;;;6.55;2.63;;;;;;;;;;4956316;28;20055;-78
2023/12/30 10:07:49;;;;;;;6.10;2.78;;;;;;;;;;4956367;29;20051;-79
2023/12/30 10:10:43;;;;;;;6.45;3.47;;;;;;;;;;4938057;29;20387;-79
2023/12/30 10:13:17;;;;;;;6.57;3.20;;;;;;;;;;4956115;28;20047;-79
2023/12/30 10:15:49;;;;;;;9.32;3.10;;;;;;;;;;4956192;29;20058;-80
2023/12/30 10:18:22;;;;;;;5.57;3.22;;;;;;;;;;4956601;29;20039;-80
2023/12/30 10:20:52;;;;;;;4.82;2.70;;;;;;;;;;4955876;29;20501;-80
2023/12/30 10:23:24;;;;;;;7.28;2.80;;;;;;;;;;4938124;29;20054;-80
2023/12/30 10:25:54;;;;;;;11.30;3.70;;;;;;;;;;4955723;29;20043;-79
2023/12/30 10:28:25;;;;;;;6.20;2.75;;;;;;;;;;4955705;29;20054;-80
2023/12/30 10:31:04;;;;;;;6.18;2.40;;;;;;;;;;4956580;29;20051;-81
2023/12/30 10:33:35;;;;;;;8.45;3.00;;;;;;;;;;4954070;29;20068;-81
2023/12/30 10:36:09;;;;;;;7.38;2.17;;;;;;;;;;4955860;29;20070;-81
2023/12/30 10:38:41;;;;;;;4.18;1.90;;;;;;;;;;4950194;28;20516;-80
2023/12/30 10:41:12;;;;;;;4.80;1.90;;;;;;;;;;4953283;29;20051;-80
2023/12/30 10:43:44;;;;;;;4.68;2.00;;;;;;;;;;4955358;28;20047;-80
2023/12/30 10:46:18;;;;;;;3.65;1.73;;;;;;;;;;4952417;29;20494;-80
2023/12/30 10:48:55;;;;;;;6.60;2.05;;;;;;;;;;4950392;28;20055;-81
2023/12/30 10:51:28;;;;;;;6.38;2.17;;;;;;;;;;4944039;29;20060;-81
2023/12/30 10:54:09;;;;;;;4.25;1.63;;;;;;;;;;4935234;29;20063;-80
2023/12/30 10:56:45;;;;;;;3.65;1.95;;;;;;;;;;4936694;28;20043;-80
2023/12/30 10:59:16;;;;;;;3.22;2.05;;;;;;;;;;4964216;28;20055;-80
2023/12/30 11:01:46;;;;;;;6.28;1.90;;;;;;;;;;4968191;29;20481;-77
2023/12/30 11:04:16;;;;;;;7.55;2.00;;;;;;;;;;4950302;28;20051;-79
2023/12/30 11:07:10;;;;;;;3.55;1.70;;;;;;;;;;4938567;28;20482;-80
2023/12/30 11:09:40;;;;;;;4.93;2.03;;;;;;;;;;4953439;28;20055;-80
2023/12/30 11:12:10;;;;;;;4.25;2.42;;;;;;;;;;4952811;29;20070;-80
2023/12/30 11:14:41;;;;;;;3.90;1.92;;;;;;;;;;4936249;29;20063;-80
2023/12/30 11:17:37;;;;;;;5.47;2.30;;;;;;;;;;4952572;29;20497;-80
2023/12/30 11:20:33;;;;;;;3.95;2.00;;;;;;;;;;4935881;29;20054;-81
2023/12/30 11:23:04;;;;;;;2.72;1.88;;;;;;;;;;4942226;29;20043;-80
2023/12/30 11:25:41;;;;;;;3.55;1.77;;;;;;;;;;4933486;29;20514;-80
2023/12/30 11:28:13;;;;;;;5.40;1.88;;;;;;;;;;4933219;29;20047;-80
2023/12/30 11:30:44;;;;;;;;;;;;;;;;;;4934340;29;20051;-80
2023/12/30 11:33:14;;;;;;;;;;;;;;;;;;4933823;29;19922;-80
2023/12/30 11:35:44;;;;;;;8.75;2.13;;;;;;;;;;4917044;29;19923;-80
2023/12/30 11:38:15;;;;;;;4.13;1.77;;;;;;;;;;4931603;29;20051;-79
2023/12/30 11:40:55;;;;;;;2.72;1.35;;;;;;;;;;4933780;29;20052;-80
2023/12/30 11:43:25;;;;;;;3.05;1.60;;;;;;;;;;4933921;29;20058;-80
2023/12/30 11:45:55;;;;;;;4.78;1.73;;;;;;;;;;4931879;29;20488;-80
2023/12/30 11:48:25;;;;;;;4.50;1.88;;;;;;;;;;4932000;29;20388;-79
2023/12/30 11:50:55;;;;;;;6.10;1.98;;;;;;;;;;4933559;29;20480;-80
2023/12/30 11:53:26;;;;;;;3.90;1.85;;;;;;;;;;4951280;29;20395;-79
2023/12/30 11:55:56;;;;;;;5.97;2.20;;;;;;;;;;4956285;28;20427;-79
2023/12/30 11:58:27;;;;;;;3.20;1.70;;;;;;;;;;4958903;29;20459;-79
2023/12/30 12:00:57;;;;;;;5.35;2.17;;;;;;;;;;4958501;29;20394;-79
2023/12/30 12:03:30;;;;;;;5.03;1.90;;;;;;;;;;4958020;29;20058;-79
2023/12/30 12:06:02;;;;;;;5.97;2.00;;;;;;;;;;4957429;29;20055;-79
2023/12/30 12:08:32;;;;;;;;;;;;;;;;;;4958493;29;20521;-79
2023/12/30 12:11:02;;;;;;;4.07;1.88;;;;;;;;;;4958415;28;19929;-79
2023/12/30 12:13:33;;;;;;;5.18;2.28;;;;;;;;;;4940854;29;20047;-80
2023/12/30 12:16:06;;;;;;;3.50;2.00;;;;;;;;;;4958289;28;20479;-79
2023/12/30 12:18:37;;;;;;;4.43;1.92;;;;;;;;;;4958007;29;20051;-79
2023/12/30 12:21:14;;;;;;;5.30;3.20;;;;;;;;;;4958533;29;20043;-80
2023/12/30 12:23:45;;;;;;;5.57;2.55;;;;;;;;;;4958071;29;20054;-79
2023/12/30 12:26:16;;;;;;;6.40;2.20;;;;;;;;;;4939913;29;20055;-79
2023/12/30 12:28:47;;;;;;;4.68;2.47;;;;;;;;;;4958041;29;20495;-79
2023/12/30 12:31:18;;;;;;;22.20;9.50;;;;;;;;;;4940231;29;20106;-80
2023/12/30 12:33:48;;;;;;;10.05;4.18;;;;;;;;;;4956085;29;20533;-80
2023/12/30 12:36:19;;;;;;;5.35;2.47;;;;;;;;;;4941492;29;20050;-79
2023/12/30 12:38:52;;;;;;;6.45;2.67;;;;;;;;;;4957195;29;20054;-80
2023/12/30 12:41:23;;;;;;;45.40;24.83;;;;;;;;;;4940396;29;20055;-79
2023/12/30 12:43:53;;;;;;;7.80;4.07;;;;;;;;;;4956670;29;20478;-80
2023/12/30 12:46:23;;;;;;;30.45;18.63;;;;;;;;;;4956439;29;20050;-79
2023/12/30 12:48:53;;;;;;;7.43;3.88;;;;;;;;;;4956373;28;20054;-80
2023/12/30 12:51:24;;;;;;;4.03;2.60;;;;;;;;;;4953898;29;20039;-81
2023/12/30 12:53:57;;;;;;;4.10;2.25;;;;;;;;;;4940462;29;20058;-79
2023/12/30 12:56:27;;;;;;;8.38;4.40;;;;;;;;;;4957548;29;20043;-80
2023/12/30 12:58:57;;;;;;;4.50;1.90;;;;;;;;;;4957061;29;20414;-81
2023/12/30 13:01:28;;;;;;;3.40;1.65;;;;;;;;;;4956872;29;20121;-80
2023/12/30 13:03:59;;;;;;;5.45;2.10;;;;;;;;;;4955058;29;20074;-81
2023/12/30 13:06:29;;;;;;;7.05;2.00;;;;;;;;;;4938788;29;20078;-81
2023/12/30 13:09:00;;;;;;;5.75;2.30;;;;;;;;;;4957119;29;20491;-81
2023/12/30 13:11:32;;;;;;;3.33;1.95;;;;;;;;;;4940538;29;20063;-82
2023/12/30 13:14:09;;;;;;;4.65;2.33;;;;;;;;;;4940653;29;20047;-82
2023/12/30 13:16:39;;;;;;;4.72;2.35;;;;;;;;;;4925042;29;20047;-82
2023/12/30 13:19:10;;;;;;;11.13;5.65;;;;;;;;;;4956726;29;20055;-83
2023/12/30 13:21:42;;;;;;;5.15;2.63;;;;;;;;;;4956733;29;20046;-82
2023/12/30 13:24:13;;;;;;;8.52;3.72;;;;;;;;;;4954036;29;20482;-82
2023/12/30 13:26:43;;;;;;;4.93;2.90;;;;;;;;;;4944288;29;20047;-82
2023/12/30 13:29:15;;;;;;;4.50;2.47;;;;;;;;;;4966794;29;20050;-83
2023/12/30 13:31:47;;;;;;;4.85;2.85;;;;;;;;;;4964928;29;20047;-81
2023/12/30 13:34:18;;;;;;;6.97;2.00;;;;;;;;;;4964141;29;20050;-83
2023/12/30 13:36:53;;;;;;;6.68;2.22;;;;;;;;;;4923703;29;20051;-83
2023/12/30 13:39:24;;;;;;;5.53;3.70;;;;;;;;;;4954662;29;20078;-81
2023/12/30 13:41:56;;;;;;;2.97;1.83;;;;;;;;;;4944561;28;20066;-82
2023/12/30 13:44:28;;;;;;;5.95;2.42;;;;;;;;;;4965867;28;20480;-81
2023/12/30 13:47:23;;;;;;;5.75;2.08;;;;;;;;;;4956911;29;20051;-81
2023/12/30 13:52:27;;;;;;;3.75;1.80;;;;;;;;;;4956090;29;19922;-82
2023/12/30 13:54:58;;;;;;;4.68;1.95;;;;;;;;;;4971293;28;20066;-82
2023/12/30 13:57:31;;;;;;;3.83;2.38;;;;;;;;;;4957375;29;20502;-81
2023/12/30 14:00:02;;;;;;;8.75;2.03;;;;;;;;;;4967666;28;20043;-82
2023/12/30 14:02:38;;;;;;;3.70;1.73;;;;;;;;;;4954541;28;20078;-81
2023/12/30 14:05:18;;;;;;;2.80;1.70;;;;;;;;;;4953876;29;21199;-82
2023/12/30 14:07:51;;;;;;;3.00;1.45;;;;;;;;;;4953122;29;20053;-81
2023/12/30 14:10:25;;;;;;;4.65;1.83;;;;;;;;;;5371793;23;20094;-82
2023/12/30 14:13:00;;;;;;;5.28;2.05;;;;;;;;;;4973567;28;20050;-82
2023/12/30 14:15:34;;;;;;;4.03;1.80;;;;;;;;;;4955403;28;20487;-82
2023/12/30 14:18:05;;;;;;;6.15;2.75;;;;;;;;;;4956127;28;20062;-82
2023/12/30 14:20:36;;;;;;;3.38;2.20;;;;;;;;;;4971746;28;20050;-84
2023/12/30 14:23:06;;;;;;;4.57;1.25;;;;;;;;;;4971192;28;20058;-81
2023/12/30 14:25:37;;;;;;;4.10;2.65;;;;;;;;;;4943300;28;20059;-82
2023/12/30 14:28:07;;;;;;;4.43;2.45;;;;;;;;;;4953901;29;20058;-81
2023/12/30 14:30:38;;;;;;;2.67;1.27;;;;;;;;;;4960512;28;20175;-83
2023/12/30 14:33:08;;;;;;;8.13;1.70;;;;;;;;;;4939500;28;20379;-82
2023/12/30 14:35:39;;;;;;;2.38;0.98;;;;;;;;;;4953617;28;20398;-81
2023/12/30 14:38:10;;;;;;;2.28;1.23;;;;;;;;;;4953520;29;20043;-82
2023/12/30 14:40:41;;;;;;;4.72;1.40;;;;;;;;;;4936397;29;20109;-80
2023/12/30 14:43:12;;;;;;;4.65;1.38;;;;;;;;;;4953559;29;20051;-81
2023/12/30 14:45:43;;;;;;;1.88;0.93;;;;;;;;;;4937941;29;20378;-83
2023/12/30 14:48:14;;;;;;;3.33;1.27;;;;;;;;;;4920053;29;20051;-82
2023/12/30 14:50:44;;;;;;;2.33;0.90;;;;;;;;;;4936684;29;20070;-82
2023/12/30 14:53:15;;;;;;;2.40;1.40;;;;;;;;;;4953620;29;20373;-80
2023/12/30 14:55:46;;;;;;;2.55;1.00;;;;;;;;;;4953533;29;20047;-80
2023/12/30 14:58:19;;;;;;;3.05;1.38;;;;;;;;;;4936305;29;20520;-81
2023/12/30 15:00:49;;;;;;;2.20;1.10;;;;;;;;;;4943905;28;20059;-81
2023/12/30 15:03:19;;;;;;;4.10;1.10;;;;;;;;;;4971301;28;20043;-82
2023/12/30 15:05:49;;;;;;;3.00;1.13;;;;;;;;;;4957365;28;20055;-82
2023/12/30 15:08:20;;;;;;;5.03;1.70;;;;;;;;;;4974167;28;20062;-81